sensor_id;sensor_type;location;lat;lon;timestamp;P1;durP1;ratioP1;P2;durP2;ratioP2
8825;SDS011;4449;50.872;4.714;2023-11-21T00:03:58;49.60;;;35.55;;
8825;SDS011;4449;50.872;4.714;2023-11-21T00:06:27;46.60;;;35.20;;
8825;SDS011;4449;50.872;4.714;2023-11-21T00:08:55;49.53;;;35.03;;
8825;SDS011;4449;50.872;4.714;2023-11-21T00:11:23;48.70;;;34.58;;
8825;SDS011;4449;50.872;4.714;2023-11-21T00:13:51;49.25;;;34.55;;
8825;SDS011;4449;50.872;4.714;2023-11-21T00:16:18;47.78;;;34.00;;
8825;SDS011;4449;50.872;4.714;2023-11-21T00:18:47;50.42;;;35.55;;
8825;SDS011;4449;50.872;4.714;2023-11-21T00:21:16;48.43;;;34.67;;
8825;SDS011;4449;50.872;4.714;2023-11-21T00:23:44;48.63;;;35.40;;
8825;SDS011;4449;50.872;4.714;2023-11-21T00:26:11;45.90;;;32.53;;
8825;SDS011;4449;50.872;4.714;2023-11-21T00:28:39;45.17;;;31.90;;
8825;SDS011;4449;50.872;4.714;2023-11-21T00:31:07;44.77;;;31.63;;
8825;SDS011;4449;50.872;4.714;2023-11-21T00:33:35;44.97;;;31.20;;
8825;SDS011;4449;50.872;4.714;2023-11-21T00:36:03;44.80;;;31.75;;
8825;SDS011;4449;50.872;4.714;2023-11-21T00:38:36;44.47;;;31.48;;
8825;SDS011;4449;50.872;4.714;2023-11-21T00:41:05;43.90;;;30.93;;
8825;SDS011;4449;50.872;4.714;2023-11-21T00:43:33;48.70;;;32.50;;
8825;SDS011;4449;50.872;4.714;2023-11-21T00:46:03;45.85;;;31.90;;
8825;SDS011;4449;50.872;4.714;2023-11-21T00:48:32;48.58;;;33.08;;
8825;SDS011;4449;50.872;4.714;2023-11-21T00:51:00;45.40;;;31.33;;
8825;SDS011;4449;50.872;4.714;2023-11-21T00:53:28;43.38;;;31.85;;
8825;SDS011;4449;50.872;4.714;2023-11-21T00:55:57;44.67;;;31.10;;
8825;SDS011;4449;50.872;4.714;2023-11-21T00:58:25;45.40;;;30.90;;
8825;SDS011;4449;50.872;4.714;2023-11-21T01:00:52;48.30;;;31.67;;
8825;SDS011;4449;50.872;4.714;2023-11-21T01:03:21;46.40;;;30.58;;
8825;SDS011;4449;50.872;4.714;2023-11-21T01:05:48;45.38;;;30.10;;
8825;SDS011;4449;50.872;4.714;2023-11-21T01:08:16;44.72;;;30.70;;
8825;SDS011;4449;50.872;4.714;2023-11-21T01:10:44;43.13;;;30.80;;
8825;SDS011;4449;50.872;4.714;2023-11-21T01:13:13;44.00;;;30.23;;
8825;SDS011;4449;50.872;4.714;2023-11-21T01:15:42;46.90;;;30.17;;
8825;SDS011;4449;50.872;4.714;2023-11-21T01:18:09;46.03;;;31.25;;
8825;SDS011;4449;50.872;4.714;2023-11-21T01:20:37;45.45;;;30.63;;
8825;SDS011;4449;50.872;4.714;2023-11-21T01:23:05;46.57;;;30.13;;
8825;SDS011;4449;50.872;4.714;2023-11-21T01:25:33;46.45;;;29.80;;
8825;SDS011;4449;50.872;4.714;2023-11-21T01:28:01;43.20;;;28.73;;
8825;SDS011;4449;50.872;4.714;2023-11-21T01:30:30;43.85;;;30.25;;
8825;SDS011;4449;50.872;4.714;2023-11-21T01:32:58;46.78;;;29.23;;
8825;SDS011;4449;50.872;4.714;2023-11-21T01:35:26;49.47;;;29.58;;
8825;SDS011;4449;50.872;4.714;2023-11-21T01:37:54;47.10;;;29.83;;
8825;SDS011;4449;50.872;4.714;2023-11-21T01:40:21;46.88;;;29.92;;
8825;SDS011;4449;50.872;4.714;2023-11-21T01:42:49;49.27;;;29.60;;
8825;SDS011;4449;50.872;4.714;2023-11-21T01:45:17;42.63;;;28.27;;
8825;SDS011;4449;50.872;4.714;2023-11-21T01:47:46;46.08;;;29.17;;
8825;SDS011;4449;50.872;4.714;2023-11-21T01:50:15;46.25;;;28.83;;
8825;SDS011;4449;50.872;4.714;2023-11-21T01:52:43;47.08;;;28.95;;
8825;SDS011;4449;50.872;4.714;2023-11-21T01:55:11;45.45;;;27.92;;
8825;SDS011;4449;50.872;4.714;2023-11-21T01:57:41;44.85;;;28.65;;
8825;SDS011;4449;50.872;4.714;2023-11-21T02:00:10;44.40;;;27.17;;
8825;SDS011;4449;50.872;4.714;2023-11-21T02:02:42;45.28;;;28.48;;
8825;SDS011;4449;50.872;4.714;2023-11-21T02:05:11;42.72;;;27.83;;
8825;SDS011;4449;50.872;4.714;2023-11-21T02:07:39;48.63;;;28.10;;
8825;SDS011;4449;50.872;4.714;2023-11-21T02:10:07;48.08;;;28.50;;
8825;SDS011;4449;50.872;4.714;2023-11-21T02:12:35;47.53;;;29.23;;
8825;SDS011;4449;50.872;4.714;2023-11-21T02:15:04;47.60;;;29.23;;
8825;SDS011;4449;50.872;4.714;2023-11-21T02:17:40;48.60;;;29.10;;
8825;SDS011;4449;50.872;4.714;2023-11-21T02:20:10;43.45;;;27.15;;
8825;SDS011;4449;50.872;4.714;2023-11-21T02:22:41;45.53;;;27.13;;
8825;SDS011;4449;50.872;4.714;2023-11-21T02:25:10;48.22;;;27.80;;
8825;SDS011;4449;50.872;4.714;2023-11-21T02:27:39;48.47;;;28.10;;
8825;SDS011;4449;50.872;4.714;2023-11-21T02:30:07;48.15;;;27.83;;
8825;SDS011;4449;50.872;4.714;2023-11-21T02:32:38;47.67;;;28.43;;
8825;SDS011;4449;50.872;4.714;2023-11-21T02:35:08;51.97;;;29.13;;
8825;SDS011;4449;50.872;4.714;2023-11-21T02:37:37;52.63;;;28.55;;
8825;SDS011;4449;50.872;4.714;2023-11-21T02:40:07;47.03;;;26.77;;
8825;SDS011;4449;50.872;4.714;2023-11-21T02:42:39;45.85;;;27.42;;
8825;SDS011;4449;50.872;4.714;2023-11-21T02:45:07;49.15;;;28.05;;
8825;SDS011;4449;50.872;4.714;2023-11-21T02:47:38;40.75;;;25.88;;
8825;SDS011;4449;50.872;4.714;2023-11-21T02:50:06;46.08;;;27.42;;
8825;SDS011;4449;50.872;4.714;2023-11-21T02:52:34;47.03;;;27.85;;
8825;SDS011;4449;50.872;4.714;2023-11-21T02:55:02;46.97;;;28.30;;
8825;SDS011;4449;50.872;4.714;2023-11-21T02:57:30;43.47;;;27.55;;
8825;SDS011;4449;50.872;4.714;2023-11-21T02:59:59;41.28;;;25.48;;
8825;SDS011;4449;50.872;4.714;2023-11-21T03:02:27;43.25;;;26.33;;
8825;SDS011;4449;50.872;4.714;2023-11-21T03:04:55;41.35;;;26.38;;
8825;SDS011;4449;50.872;4.714;2023-11-21T03:07:23;42.78;;;27.13;;
8825;SDS011;4449;50.872;4.714;2023-11-21T03:09:50;45.95;;;26.02;;
8825;SDS011;4449;50.872;4.714;2023-11-21T03:12:18;43.97;;;26.70;;
8825;SDS011;4449;50.872;4.714;2023-11-21T03:14:46;43.50;;;26.63;;
8825;SDS011;4449;50.872;4.714;2023-11-21T03:17:15;48.05;;;27.67;;
8825;SDS011;4449;50.872;4.714;2023-11-21T03:19:43;44.42;;;26.33;;
8825;SDS011;4449;50.872;4.714;2023-11-21T03:22:11;45.72;;;26.65;;
8825;SDS011;4449;50.872;4.714;2023-11-21T03:24:39;48.88;;;27.00;;
8825;SDS011;4449;50.872;4.714;2023-11-21T03:27:07;46.15;;;26.42;;
8825;SDS011;4449;50.872;4.714;2023-11-21T03:29:34;42.72;;;26.50;;
8825;SDS011;4449;50.872;4.714;2023-11-21T03:32:02;43.90;;;26.95;;
8825;SDS011;4449;50.872;4.714;2023-11-21T03:34:31;42.75;;;26.02;;
8825;SDS011;4449;50.872;4.714;2023-11-21T03:36:59;47.53;;;27.33;;
8825;SDS011;4449;50.872;4.714;2023-11-21T03:39:27;45.17;;;27.38;;
8825;SDS011;4449;50.872;4.714;2023-11-21T03:41:55;46.10;;;26.77;;
8825;SDS011;4449;50.872;4.714;2023-11-21T03:44:22;48.28;;;27.77;;
8825;SDS011;4449;50.872;4.714;2023-11-21T03:46:50;43.13;;;26.60;;
8825;SDS011;4449;50.872;4.714;2023-11-21T03:49:18;41.25;;;25.00;;
8825;SDS011;4449;50.872;4.714;2023-11-21T03:51:47;46.05;;;26.33;;
8825;SDS011;4449;50.872;4.714;2023-11-21T03:54:15;41.50;;;25.67;;
8825;SDS011;4449;50.872;4.714;2023-11-21T03:56:42;44.08;;;25.80;;
8825;SDS011;4449;50.872;4.714;2023-11-21T03:59:10;46.25;;;26.60;;
8825;SDS011;4449;50.872;4.714;2023-11-21T04:01:38;44.35;;;26.80;;
8825;SDS011;4449;50.872;4.714;2023-11-21T04:04:06;42.03;;;27.10;;
8825;SDS011;4449;50.872;4.714;2023-11-21T04:06:33;43.95;;;26.35;;
8825;SDS011;4449;50.872;4.714;2023-11-21T04:09:04;41.47;;;25.05;;
8825;SDS011;4449;50.872;4.714;2023-11-21T04:11:32;40.03;;;24.83;;
8825;SDS011;4449;50.872;4.714;2023-11-21T04:13:59;40.10;;;25.10;;
8825;SDS011;4449;50.872;4.714;2023-11-21T04:16:27;38.88;;;24.73;;
8825;SDS011;4449;50.872;4.714;2023-11-21T04:18:55;41.08;;;24.75;;
8825;SDS011;4449;50.872;4.714;2023-11-21T04:21:23;38.40;;;24.27;;
8825;SDS011;4449;50.872;4.714;2023-11-21T04:23:50;40.47;;;24.20;;
8825;SDS011;4449;50.872;4.714;2023-11-21T04:26:19;38.45;;;24.02;;
8825;SDS011;4449;50.872;4.714;2023-11-21T04:28:47;38.60;;;24.35;;
8825;SDS011;4449;50.872;4.714;2023-11-21T04:31:15;41.60;;;25.48;;
8825;SDS011;4449;50.872;4.714;2023-11-21T04:33:42;37.33;;;24.83;;
8825;SDS011;4449;50.872;4.714;2023-11-21T04:36:10;39.38;;;23.65;;
8825;SDS011;4449;50.872;4.714;2023-11-21T04:38:38;37.90;;;24.13;;
8825;SDS011;4449;50.872;4.714;2023-11-21T04:41:06;35.00;;;23.60;;
8825;SDS011;4449;50.872;4.714;2023-11-21T04:43:35;36.00;;;23.13;;
8825;SDS011;4449;50.872;4.714;2023-11-21T04:46:03;38.45;;;24.25;;
8825;SDS011;4449;50.872;4.714;2023-11-21T04:48:32;36.90;;;23.63;;
8825;SDS011;4449;50.872;4.714;2023-11-21T04:51:00;35.50;;;23.50;;
8825;SDS011;4449;50.872;4.714;2023-11-21T04:53:28;37.47;;;23.52;;
8825;SDS011;4449;50.872;4.714;2023-11-21T04:55:55;36.53;;;23.05;;
8825;SDS011;4449;50.872;4.714;2023-11-21T04:58:23;39.00;;;24.57;;
8825;SDS011;4449;50.872;4.714;2023-11-21T05:00:52;36.88;;;23.60;;
8825;SDS011;4449;50.872;4.714;2023-11-21T05:03:20;38.78;;;24.65;;
8825;SDS011;4449;50.872;4.714;2023-11-21T05:05:49;38.28;;;24.27;;
8825;SDS011;4449;50.872;4.714;2023-11-21T05:08:16;36.72;;;23.38;;
8825;SDS011;4449;50.872;4.714;2023-11-21T05:10:45;37.75;;;23.05;;
8825;SDS011;4449;50.872;4.714;2023-11-21T05:13:14;36.58;;;22.80;;
8825;SDS011;4449;50.872;4.714;2023-11-21T05:15:43;36.80;;;23.15;;
8825;SDS011;4449;50.872;4.714;2023-11-21T05:18:12;38.58;;;23.15;;
8825;SDS011;4449;50.872;4.714;2023-11-21T05:20:40;38.25;;;22.63;;
8825;SDS011;4449;50.872;4.714;2023-11-21T05:23:08;35.45;;;22.48;;
8825;SDS011;4449;50.872;4.714;2023-11-21T05:25:35;35.55;;;22.08;;
8825;SDS011;4449;50.872;4.714;2023-11-21T05:28:03;37.33;;;22.80;;
8825;SDS011;4449;50.872;4.714;2023-11-21T05:30:32;37.80;;;23.35;;
8825;SDS011;4449;50.872;4.714;2023-11-21T05:33:00;38.77;;;22.80;;
8825;SDS011;4449;50.872;4.714;2023-11-21T05:35:29;38.58;;;22.60;;
8825;SDS011;4449;50.872;4.714;2023-11-21T05:37:57;35.33;;;23.07;;
8825;SDS011;4449;50.872;4.714;2023-11-21T05:40:24;37.72;;;24.23;;
8825;SDS011;4449;50.872;4.714;2023-11-21T05:42:55;40.03;;;23.80;;
8825;SDS011;4449;50.872;4.714;2023-11-21T05:45:22;38.97;;;23.23;;
8825;SDS011;4449;50.872;4.714;2023-11-21T05:47:51;38.20;;;22.35;;
8825;SDS011;4449;50.872;4.714;2023-11-21T05:50:18;34.22;;;22.10;;
8825;SDS011;4449;50.872;4.714;2023-11-21T05:52:47;31.80;;;20.65;;
8825;SDS011;4449;50.872;4.714;2023-11-21T05:55:15;35.75;;;21.38;;
8825;SDS011;4449;50.872;4.714;2023-11-21T05:57:43;32.60;;;21.45;;
8825;SDS011;4449;50.872;4.714;2023-11-21T06:00:11;29.35;;;20.75;;
8825;SDS011;4449;50.872;4.714;2023-11-21T06:02:44;32.03;;;20.35;;
8825;SDS011;4449;50.872;4.714;2023-11-21T06:05:11;34.15;;;21.65;;
8825;SDS011;4449;50.872;4.714;2023-11-21T06:07:39;33.87;;;21.57;;
8825;SDS011;4449;50.872;4.714;2023-11-21T06:10:10;31.75;;;21.48;;
8825;SDS011;4449;50.872;4.714;2023-11-21T06:12:39;29.98;;;20.20;;
8825;SDS011;4449;50.872;4.714;2023-11-21T06:15:08;32.80;;;20.45;;
8825;SDS011;4449;50.872;4.714;2023-11-21T06:17:39;31.45;;;20.95;;
8825;SDS011;4449;50.872;4.714;2023-11-21T06:20:07;32.08;;;21.02;;
8825;SDS011;4449;50.872;4.714;2023-11-21T06:22:36;33.45;;;20.70;;
8825;SDS011;4449;50.872;4.714;2023-11-21T06:25:04;40.28;;;26.60;;
8825;SDS011;4449;50.872;4.714;2023-11-21T06:27:34;32.70;;;20.90;;
8825;SDS011;4449;50.872;4.714;2023-11-21T06:30:04;30.13;;;20.42;;
8825;SDS011;4449;50.872;4.714;2023-11-21T06:32:32;31.50;;;19.80;;
8825;SDS011;4449;50.872;4.714;2023-11-21T06:35:01;32.92;;;19.98;;
8825;SDS011;4449;50.872;4.714;2023-11-21T06:37:29;31.70;;;19.98;;
8825;SDS011;4449;50.872;4.714;2023-11-21T06:39:57;30.75;;;20.48;;
8825;SDS011;4449;50.872;4.714;2023-11-21T06:42:26;32.63;;;20.50;;
8825;SDS011;4449;50.872;4.714;2023-11-21T06:44:55;34.08;;;21.30;;
8825;SDS011;4449;50.872;4.714;2023-11-21T06:47:24;33.30;;;21.33;;
8825;SDS011;4449;50.872;4.714;2023-11-21T06:49:53;32.33;;;21.40;;
8825;SDS011;4449;50.872;4.714;2023-11-21T06:52:21;33.42;;;21.80;;
8825;SDS011;4449;50.872;4.714;2023-11-21T06:54:48;33.70;;;21.40;;
8825;SDS011;4449;50.872;4.714;2023-11-21T06:57:16;34.72;;;21.83;;
8825;SDS011;4449;50.872;4.714;2023-11-21T06:59:44;32.10;;;20.52;;
8825;SDS011;4449;50.872;4.714;2023-11-21T07:02:13;34.88;;;23.58;;
8825;SDS011;4449;50.872;4.714;2023-11-21T07:04:43;32.50;;;20.83;;
8825;SDS011;4449;50.872;4.714;2023-11-21T07:07:11;34.58;;;20.95;;
8825;SDS011;4449;50.872;4.714;2023-11-21T07:09:39;36.00;;;21.63;;
8825;SDS011;4449;50.872;4.714;2023-11-21T07:12:07;32.23;;;21.23;;
8825;SDS011;4449;50.872;4.714;2023-11-21T07:14:36;35.58;;;20.48;;
8825;SDS011;4449;50.872;4.714;2023-11-21T07:17:06;33.35;;;21.50;;
8825;SDS011;4449;50.872;4.714;2023-11-21T07:19:35;37.58;;;22.33;;
8825;SDS011;4449;50.872;4.714;2023-11-21T07:22:03;44.63;;;31.80;;
8825;SDS011;4449;50.872;4.714;2023-11-21T07:24:32;37.35;;;23.83;;
8825;SDS011;4449;50.872;4.714;2023-11-21T07:26:59;37.33;;;24.23;;
8825;SDS011;4449;50.872;4.714;2023-11-21T07:29:29;39.22;;;24.67;;
8825;SDS011;4449;50.872;4.714;2023-11-21T07:31:57;37.70;;;24.15;;
8825;SDS011;4449;50.872;4.714;2023-11-21T07:34:25;38.70;;;23.92;;
8825;SDS011;4449;50.872;4.714;2023-11-21T07:36:54;38.83;;;24.00;;
8825;SDS011;4449;50.872;4.714;2023-11-21T07:39:22;41.15;;;24.00;;
8825;SDS011;4449;50.872;4.714;2023-11-21T07:41:49;36.55;;;23.42;;
8825;SDS011;4449;50.872;4.714;2023-11-21T07:44:17;39.58;;;23.10;;
8825;SDS011;4449;50.872;4.714;2023-11-21T07:46:45;36.80;;;24.00;;
8825;SDS011;4449;50.872;4.714;2023-11-21T07:49:15;35.72;;;24.15;;
8825;SDS011;4449;50.872;4.714;2023-11-21T07:51:45;36.42;;;23.67;;
8825;SDS011;4449;50.872;4.714;2023-11-21T07:54:15;38.22;;;23.65;;
8825;SDS011;4449;50.872;4.714;2023-11-21T07:56:42;33.33;;;22.70;;
8825;SDS011;4449;50.872;4.714;2023-11-21T07:59:10;38.22;;;22.42;;
8825;SDS011;4449;50.872;4.714;2023-11-21T08:01:39;35.60;;;23.00;;
8825;SDS011;4449;50.872;4.714;2023-11-21T08:04:08;36.63;;;23.88;;
8825;SDS011;4449;50.872;4.714;2023-11-21T08:06:36;37.60;;;23.70;;
8825;SDS011;4449;50.872;4.714;2023-11-21T08:09:04;35.72;;;23.38;;
8825;SDS011;4449;50.872;4.714;2023-11-21T08:11:35;33.55;;;23.65;;
8825;SDS011;4449;50.872;4.714;2023-11-21T08:14:04;35.17;;;23.10;;
8825;SDS011;4449;50.872;4.714;2023-11-21T08:16:32;34.08;;;23.67;;
8825;SDS011;4449;50.872;4.714;2023-11-21T08:19:00;33.35;;;22.83;;
8825;SDS011;4449;50.872;4.714;2023-11-21T08:21:28;37.20;;;24.02;;
8825;SDS011;4449;50.872;4.714;2023-11-21T08:23:56;36.10;;;23.15;;
8825;SDS011;4449;50.872;4.714;2023-11-21T08:26:25;36.60;;;24.13;;
8825;SDS011;4449;50.872;4.714;2023-11-21T08:28:54;35.53;;;23.35;;
8825;SDS011;4449;50.872;4.714;2023-11-21T08:31:23;33.30;;;24.00;;
8825;SDS011;4449;50.872;4.714;2023-11-21T08:33:51;40.63;;;23.48;;
8825;SDS011;4449;50.872;4.714;2023-11-21T08:36:20;34.38;;;24.17;;
8825;SDS011;4449;50.872;4.714;2023-11-21T08:38:49;36.97;;;25.00;;
8825;SDS011;4449;50.872;4.714;2023-11-21T08:41:17;35.53;;;24.50;;
8825;SDS011;4449;50.872;4.714;2023-11-21T08:43:47;35.53;;;24.13;;
8825;SDS011;4449;50.872;4.714;2023-11-21T08:46:16;33.13;;;23.33;;
8825;SDS011;4449;50.872;4.714;2023-11-21T08:48:44;38.70;;;25.27;;
8825;SDS011;4449;50.872;4.714;2023-11-21T08:51:12;36.15;;;25.77;;
8825;SDS011;4449;50.872;4.714;2023-11-21T08:53:41;36.45;;;24.35;;
8825;SDS011;4449;50.872;4.714;2023-11-21T08:56:12;35.90;;;24.20;;
8825;SDS011;4449;50.872;4.714;2023-11-21T08:58:40;36.55;;;23.98;;
8825;SDS011;4449;50.872;4.714;2023-11-21T09:01:08;38.33;;;24.85;;
8825;SDS011;4449;50.872;4.714;2023-11-21T09:03:38;34.50;;;23.75;;
8825;SDS011;4449;50.872;4.714;2023-11-21T09:06:07;37.22;;;24.50;;
8825;SDS011;4449;50.872;4.714;2023-11-21T09:08:35;39.22;;;24.27;;
8825;SDS011;4449;50.872;4.714;2023-11-21T09:11:03;37.05;;;24.52;;
8825;SDS011;4449;50.872;4.714;2023-11-21T09:13:31;36.15;;;24.05;;
8825;SDS011;4449;50.872;4.714;2023-11-21T09:15:58;38.70;;;24.55;;
8825;SDS011;4449;50.872;4.714;2023-11-21T09:18:26;38.50;;;25.10;;
8825;SDS011;4449;50.872;4.714;2023-11-21T09:20:55;38.45;;;25.27;;
8825;SDS011;4449;50.872;4.714;2023-11-21T09:35:05;50.47;;;30.05;;
8825;SDS011;4449;50.872;4.714;2023-11-21T09:37:34;46.83;;;28.70;;
8825;SDS011;4449;50.872;4.714;2023-11-21T09:40:03;46.72;;;27.55;;
8825;SDS011;4449;50.872;4.714;2023-11-21T09:42:38;14.82;;;10.90;;
8825;SDS011;4449;50.872;4.714;2023-11-21T09:45:08;40.60;;;27.02;;
8825;SDS011;4449;50.872;4.714;2023-11-21T09:47:39;41.78;;;28.85;;
8825;SDS011;4449;50.872;4.714;2023-11-21T09:50:09;41.80;;;25.23;;
8825;SDS011;4449;50.872;4.714;2023-11-21T09:52:38;32.38;;;23.85;;
8825;SDS011;4449;50.872;4.714;2023-11-21T09:55:08;36.15;;;25.02;;
8825;SDS011;4449;50.872;4.714;2023-11-21T09:57:41;39.35;;;25.08;;
8825;SDS011;4449;50.872;4.714;2023-11-21T10:00:09;37.03;;;24.17;;
8825;SDS011;4449;50.872;4.714;2023-11-21T10:02:38;31.90;;;21.10;;
8825;SDS011;4449;50.872;4.714;2023-11-21T10:05:06;27.58;;;20.60;;
8825;SDS011;4449;50.872;4.714;2023-11-21T10:07:38;24.27;;;19.02;;
8825;SDS011;4449;50.872;4.714;2023-11-21T10:10:08;27.30;;;19.60;;
8825;SDS011;4449;50.872;4.714;2023-11-21T10:12:37;26.13;;;18.20;;
8825;SDS011;4449;50.872;4.714;2023-11-21T10:15:07;20.30;;;16.23;;
8825;SDS011;4449;50.872;4.714;2023-11-21T10:17:37;30.50;;;23.77;;
8825;SDS011;4449;50.872;4.714;2023-11-21T10:20:09;22.55;;;17.15;;
8825;SDS011;4449;50.872;4.714;2023-11-21T10:22:40;23.55;;;17.70;;
8825;SDS011;4449;50.872;4.714;2023-11-21T10:25:08;25.95;;;19.08;;
8825;SDS011;4449;50.872;4.714;2023-11-21T10:27:36;28.73;;;20.13;;
8825;SDS011;4449;50.872;4.714;2023-11-21T10:30:05;31.17;;;21.27;;
8825;SDS011;4449;50.872;4.714;2023-11-21T10:32:33;32.88;;;22.60;;
8825;SDS011;4449;50.872;4.714;2023-11-21T10:35:01;38.03;;;23.65;;
8825;SDS011;4449;50.872;4.714;2023-11-21T10:37:32;42.67;;;24.90;;
8825;SDS011;4449;50.872;4.714;2023-11-21T10:40:01;39.88;;;24.58;;
8825;SDS011;4449;50.872;4.714;2023-11-21T10:42:31;41.78;;;26.05;;
8825;SDS011;4449;50.872;4.714;2023-11-21T10:44:59;40.25;;;25.42;;
8825;SDS011;4449;50.872;4.714;2023-11-21T10:47:28;39.90;;;25.20;;
8825;SDS011;4449;50.872;4.714;2023-11-21T10:49:56;40.10;;;25.80;;
8825;SDS011;4449;50.872;4.714;2023-11-21T10:52:26;40.95;;;24.98;;
8825;SDS011;4449;50.872;4.714;2023-11-21T10:54:54;43.55;;;26.02;;
8825;SDS011;4449;50.872;4.714;2023-11-21T10:57:25;36.85;;;24.10;;
8825;SDS011;4449;50.872;4.714;2023-11-21T10:59:53;38.17;;;24.63;;
8825;SDS011;4449;50.872;4.714;2023-11-21T11:02:23;35.08;;;23.48;;
8825;SDS011;4449;50.872;4.714;2023-11-21T11:04:53;37.13;;;24.23;;
8825;SDS011;4449;50.872;4.714;2023-11-21T11:07:24;35.00;;;24.67;;
8825;SDS011;4449;50.872;4.714;2023-11-21T11:09:53;38.67;;;24.88;;
8825;SDS011;4449;50.872;4.714;2023-11-21T11:12:21;40.65;;;24.42;;
8825;SDS011;4449;50.872;4.714;2023-11-21T11:14:50;32.10;;;23.42;;
8825;SDS011;4449;50.872;4.714;2023-11-21T11:17:18;32.70;;;22.10;;
8825;SDS011;4449;50.872;4.714;2023-11-21T11:19:46;35.10;;;23.88;;
8825;SDS011;4449;50.872;4.714;2023-11-21T12:20:18;21.92;;;17.83;;
8825;SDS011;4449;50.872;4.714;2023-11-21T12:22:46;20.55;;;16.60;;
8825;SDS011;4449;50.872;4.714;2023-11-21T12:25:14;20.90;;;16.60;;
8825;SDS011;4449;50.872;4.714;2023-11-21T12:27:44;18.80;;;15.38;;
8825;SDS011;4449;50.872;4.714;2023-11-21T12:30:14;16.00;;;14.40;;
8825;SDS011;4449;50.872;4.714;2023-11-21T12:32:42;14.80;;;12.30;;
8825;SDS011;4449;50.872;4.714;2023-11-21T12:35:11;14.27;;;12.30;;
8825;SDS011;4449;50.872;4.714;2023-11-21T12:37:41;13.27;;;11.82;;
8825;SDS011;4449;50.872;4.714;2023-11-21T12:40:09;14.90;;;12.50;;
8825;SDS011;4449;50.872;4.714;2023-11-21T12:42:40;13.63;;;11.43;;
8825;SDS011;4449;50.872;4.714;2023-11-21T12:45:09;12.60;;;11.00;;
8825;SDS011;4449;50.872;4.714;2023-11-21T12:47:41;12.75;;;10.82;;
8825;SDS011;4449;50.872;4.714;2023-11-21T12:50:09;12.60;;;11.10;;
8825;SDS011;4449;50.872;4.714;2023-11-21T12:52:42;14.50;;;11.15;;
8825;SDS011;4449;50.872;4.714;2023-11-21T12:55:15;12.60;;;10.73;;
8825;SDS011;4449;50.872;4.714;2023-11-21T12:57:44;10.65;;;9.55;;
8825;SDS011;4449;50.872;4.714;2023-11-21T13:00:13;9.75;;;8.75;;
8825;SDS011;4449;50.872;4.714;2023-11-21T13:02:52;9.73;;;8.75;;
8825;SDS011;4449;50.872;4.714;2023-11-21T13:05:28;9.98;;;8.68;;
8825;SDS011;4449;50.872;4.714;2023-11-21T13:07:58;10.30;;;9.02;;
8825;SDS011;4449;50.872;4.714;2023-11-21T13:10:28;10.23;;;9.10;;
8825;SDS011;4449;50.872;4.714;2023-11-21T13:12:57;10.93;;;9.32;;
8825;SDS011;4449;50.872;4.714;2023-11-21T13:15:25;9.10;;;8.07;;
8825;SDS011;4449;50.872;4.714;2023-11-21T13:17:53;8.00;;;7.30;;
8825;SDS011;4449;50.872;4.714;2023-11-21T13:20:23;7.60;;;6.90;;
8825;SDS011;4449;50.872;4.714;2023-11-21T13:22:51;7.40;;;6.80;;
8825;SDS011;4449;50.872;4.714;2023-11-21T13:25:21;7.72;;;7.03;;
8825;SDS011;4449;50.872;4.714;2023-11-21T13:27:49;7.93;;;7.30;;
8825;SDS011;4449;50.872;4.714;2023-11-21T13:30:17;7.85;;;7.15;;
8825;SDS011;4449;50.872;4.714;2023-11-21T13:32:49;7.70;;;6.90;;
8825;SDS011;4449;50.872;4.714;2023-11-21T13:35:17;8.00;;;7.20;;
8825;SDS011;4449;50.872;4.714;2023-11-21T13:37:49;7.43;;;6.63;;
8825;SDS011;4449;50.872;4.714;2023-11-21T13:40:22;7.22;;;6.63;;
8825;SDS011;4449;50.872;4.714;2023-11-21T13:42:52;7.38;;;6.72;;
8825;SDS011;4449;50.872;4.714;2023-11-21T13:45:21;6.80;;;6.20;;
8825;SDS011;4449;50.872;4.714;2023-11-21T13:47:50;6.90;;;6.30;;
8825;SDS011;4449;50.872;4.714;2023-11-21T13:50:20;7.05;;;6.45;;
8825;SDS011;4449;50.872;4.714;2023-11-21T13:52:51;6.50;;;6.10;;
8825;SDS011;4449;50.872;4.714;2023-11-21T13:55:19;6.65;;;6.05;;
8825;SDS011;4449;50.872;4.714;2023-11-21T13:57:52;6.55;;;6.05;;
8825;SDS011;4449;50.872;4.714;2023-11-21T14:00:20;6.43;;;5.82;;
8825;SDS011;4449;50.872;4.714;2023-11-21T14:03:07;6.43;;;5.93;;
8825;SDS011;4449;50.872;4.714;2023-11-21T14:05:43;6.57;;;5.87;;
8825;SDS011;4449;50.872;4.714;2023-11-21T14:08:12;6.13;;;5.60;;
8825;SDS011;4449;50.872;4.714;2023-11-21T14:10:42;6.05;;;5.50;;
8825;SDS011;4449;50.872;4.714;2023-11-21T14:13:16;5.93;;;5.53;;
8825;SDS011;4449;50.872;4.714;2023-11-21T14:15:44;5.85;;;5.45;;
8825;SDS011;4449;50.872;4.714;2023-11-21T14:18:16;6.38;;;5.78;;
8825;SDS011;4449;50.872;4.714;2023-11-21T14:20:52;5.85;;;5.45;;
8825;SDS011;4449;50.872;4.714;2023-11-21T14:23:20;8.25;;;6.47;;
8825;SDS011;4449;50.872;4.714;2023-11-21T14:25:48;11.32;;;6.43;;
8825;SDS011;4449;50.872;4.714;2023-11-21T14:28:18;7.03;;;6.45;;
8825;SDS011;4449;50.872;4.714;2023-11-21T14:30:46;6.47;;;5.97;;
8825;SDS011;4449;50.872;4.714;2023-11-21T14:33:14;6.88;;;6.28;;
8825;SDS011;4449;50.872;4.714;2023-11-21T14:35:42;6.70;;;6.20;;
8825;SDS011;4449;50.872;4.714;2023-11-21T14:38:10;7.65;;;6.50;;
8825;SDS011;4449;50.872;4.714;2023-11-21T14:40:39;7.10;;;6.40;;
8825;SDS011;4449;50.872;4.714;2023-11-21T14:43:06;19.90;;;7.88;;
8825;SDS011;4449;50.872;4.714;2023-11-21T14:45:35;6.70;;;6.07;;
8825;SDS011;4449;50.872;4.714;2023-11-21T14:48:03;6.72;;;6.13;;
8825;SDS011;4449;50.872;4.714;2023-11-21T14:50:41;6.72;;;6.22;;
8825;SDS011;4449;50.872;4.714;2023-11-21T14:53:15;6.40;;;5.90;;
8825;SDS011;4449;50.872;4.714;2023-11-21T14:56:03;7.18;;;6.55;;
8825;SDS011;4449;50.872;4.714;2023-11-21T14:58:30;6.70;;;6.10;;
8825;SDS011;4449;50.872;4.714;2023-11-21T15:00:59;6.77;;;6.33;;
8825;SDS011;4449;50.872;4.714;2023-11-21T15:03:26;7.13;;;6.43;;
8825;SDS011;4449;50.872;4.714;2023-11-21T15:06:13;7.32;;;6.72;;
8825;SDS011;4449;50.872;4.714;2023-11-21T15:08:55;7.00;;;6.40;;
8825;SDS011;4449;50.872;4.714;2023-11-21T15:11:54;7.18;;;6.57;;
8825;SDS011;4449;50.872;4.714;2023-11-21T15:14:28;7.43;;;6.82;;
8825;SDS011;4449;50.872;4.714;2023-11-21T15:16:58;7.68;;;6.97;;
8825;SDS011;4449;50.872;4.714;2023-11-21T15:19:27;7.03;;;6.53;;
8825;SDS011;4449;50.872;4.714;2023-11-21T15:21:56;7.53;;;6.93;;
8825;SDS011;4449;50.872;4.714;2023-11-21T15:24:24;7.97;;;7.38;;
8825;SDS011;4449;50.872;4.714;2023-11-21T15:26:52;8.00;;;7.28;;
8825;SDS011;4449;50.872;4.714;2023-11-21T15:29:20;7.30;;;6.70;;
8825;SDS011;4449;50.872;4.714;2023-11-21T15:31:48;7.10;;;6.50;;
8825;SDS011;4449;50.872;4.714;2023-11-21T15:50:45;9.55;;;8.55;;
8825;SDS011;4449;50.872;4.714;2023-11-21T15:53:16;10.30;;;9.35;;
8825;SDS011;4449;50.872;4.714;2023-11-21T15:55:43;11.43;;;9.67;;
8825;SDS011;4449;50.872;4.714;2023-11-21T15:58:11;11.02;;;9.93;;
8825;SDS011;4449;50.872;4.714;2023-11-21T16:00:38;11.15;;;10.15;;
8825;SDS011;4449;50.872;4.714;2023-11-21T16:03:07;12.57;;;11.37;;
8825;SDS011;4449;50.872;4.714;2023-11-21T16:05:36;11.98;;;10.75;;
8825;SDS011;4449;50.872;4.714;2023-11-21T16:08:06;12.18;;;11.10;;
8825;SDS011;4449;50.872;4.714;2023-11-21T16:10:33;12.25;;;11.02;;
8825;SDS011;4449;50.872;4.714;2023-11-21T16:13:02;12.77;;;11.45;;
8825;SDS011;4449;50.872;4.714;2023-11-21T16:15:29;12.32;;;10.98;;
8825;SDS011;4449;50.872;4.714;2023-11-21T16:17:59;15.93;;;14.32;;
8825;SDS011;4449;50.872;4.714;2023-11-21T16:20:27;13.00;;;11.80;;
8825;SDS011;4449;50.872;4.714;2023-11-21T16:22:54;11.80;;;10.60;;
8825;SDS011;4449;50.872;4.714;2023-11-21T16:25:23;12.47;;;11.27;;
8825;SDS011;4449;50.872;4.714;2023-11-21T16:27:51;12.93;;;11.73;;
8825;SDS011;4449;50.872;4.714;2023-11-21T16:30:20;13.32;;;12.02;;
8825;SDS011;4449;50.872;4.714;2023-11-21T16:32:49;13.32;;;12.13;;